Allensville, Ohio
Current Conditions -  °F | °C
As of 8:15 AM on Wednesday 22 Oct 2014 (Local Time) from KUNI Reporting Station
Overcast Overcast  
Wind Chill:   Ceiling: 1400
Heat Index:   Visibility: 10mi
Dew Point:   Wind: 3mph
Humidity: 83%   Direction: 330°NNW
Pressure: 30.2"   Gusts: NA
Location:  39.2719°N, 82.4596°W
Report Text: KUNI 221215Z AUTO 33003KT 10SM BKN014 OVC021 08/05 A3020 RMK AO2 T00800052
Loading
Personal Weather Stations






























Interactive Weather Map New forecast layout! Learn more

10-Day Weather Forecast

Advertisements
Track Severe Weather on mobile